Latest Weather Observations for Camooweal

IDQ60801

Issued at 2:02 pm EST Monday 26 January 2015 (issued every 30 minutes, with the page automatically refreshed every 10 minutes)

About weather observations | Map of weather stations | Latest weather observations for QLD | Other Formats
Station Details ID: 037010 Name: CAMOOWEAL TOWNSHIP Lat: -19.92 Lon: 138.12 Height: 231.2 m
Data from the previous 72 hours. | See also: Recent months at Camooweal
Date/Time
EST
Temp
°C
App
Temp
°C
Dew
Point
Rel
Hum
%
Delta-T
°C
Wind Press
QNH
hPa
Press
MSL
hPa
Rain
since 9 am
mm
Dir
 
Spd
km/h
Gust
km/h
Spd
kts
Gust
kts
26/02:00pm 35.5 33.4 13.6 26 13.5 S 17 28 9 15 1007.0 1005.2 0.0
26/01:30pm 35.1 33.6 15.4 30 12.5 S 17 28 9 15 1007.5 1005.7 0.0
26/01:00pm 34.8 34.2 15.7 32 12.1 SE 13 20 7 11 1008.0 1006.2 0.0
26/12:30pm 34.0 33.3 15.4 32 11.7 SSE 13 20 7 11 1008.5 1006.7 0.0
26/12:00pm 34.3 34.4 16.6 34 11.4 SSE 11 19 6 10 1009.1 1007.3 0.0
26/11:30am 33.2 33.7 17.4 39 10.2 SE 11 17 6 9 1009.4 1007.6 0.0
26/11:00am 33.6 34.2 18.5 40 9.9 S 13 24 7 13 1009.7 1007.9 0.0
26/10:30am 32.9 33.6 17.9 41 9.7 SSE 11 22 6 12 1009.9 1008.1 0.0
26/10:00am 31.9 33.2 20.2 50 7.8 SW 13 17 7 9 1010.0 1008.2 0.0
26/09:30am 31.1 33.8 22.1 58 6.2 WSW 11 15 6 8 1010.2 1008.4 0.0
26/09:00am 29.7 31.7 21.6 61 5.5 WSW 13 19 7 10 1010.2 1008.4 0.0
26/08:30am 28.0 30.6 22.7 73 3.6 SW 13 17 7 9 1010.2 1008.4 0.0
26/08:00am 26.6 29.7 22.9 80 2.5 SSW 11 15 6 8 1010.2 1008.4 0.0
26/07:30am 25.8 28.3 22.5 82 2.2 SSW 13 17 7 9 1010.0 1008.2 0.0
26/07:00am 25.5 28.5 22.6 84 2.0 S 11 13 6 7 1009.6 1007.8 0.0
26/06:30am 25.2 28.8 22.3 84 2.0 S 7 11 4 6 1009.4 1007.6 0.0
26/06:00am 25.2 28.0 22.3 84 2.0 S 11 13 6 7 1008.9 1007.1 0.0
26/05:30am 25.5 28.0 22.4 83 2.1 SSW 13 19 7 10 1008.3 1006.5 0.0
26/05:00am 25.6 27.6 22.3 82 2.2 SSW 15 20 8 11 1007.9 1006.1 0.0
26/04:30am 25.6 27.7 22.5 83 2.1 SW 15 19 8 10 1007.7 1005.9 0.0
26/04:00am 25.8 27.7 22.7 83 2.1 SW 17 20 9 11 1007.7 1005.9 0.0
26/03:30am 26.2 28.3 22.5 80 2.5 SW 15 22 8 12 1007.6 1005.8 0.0
26/03:00am 26.1 29.1 22.0 78 2.8 W 9 13 5 7 1007.6 1005.8 0.0
26/02:30am 26.2 29.4 21.6 76 3.1 WSW 7 9 4 5 1007.4 1005.6 0.0
26/02:00am 26.7 30.0 21.5 73 3.5 WNW 6 9 3 5 1007.5 1005.7 0.0
26/01:30am 26.8 29.8 21.3 72 3.7 NW 7 11 4 6 1007.9 1006.1 0.0
26/01:00am 27.0 29.2 21.1 70 3.9 NW 11 15 6 8 1008.5 1006.7 0.0
26/12:30am 26.8 28.9 20.9 70 3.9 NNW 11 17 6 9 1008.8 1007.0 0.0
26/12:00am 26.9 28.1 20.7 69 4.1 N 15 20 8 11 1009.3 1007.5 0.0
 
Date/Time
EST
Temp
°C
App
Temp
°C
Dew
Point
Rel
Hum
%
Delta-T
°C
Wind Press
QNH
hPa
Press
MSL
hPa
Rain
since 9 am
mm
Dir
 
Spd
km/h
Gust
km/h
Spd
kts
Gust
kts
25/11:30pm 27.5 29.0 20.6 66 4.6 N 13 20 7 11 1009.9 1008.1 0.0
25/11:00pm 27.8 29.2 20.4 64 4.9 N 13 17 7 9 1009.9 1008.1 0.0
25/10:30pm 28.1 30.2 19.3 58 5.7 NNE 7 11 4 6 1009.5 1007.7 0.0
25/10:00pm 28.2 29.2 19.4 59 5.8 NNE 13 17 7 9 1008.6 1006.8 0.0
25/09:30pm 28.5 28.6 19.1 56 6.1 NNE 17 20 9 11 1008.0 1006.2 0.0
25/09:00pm 28.6 28.1 19.0 56 6.3 N 20 30 11 16 1007.8 1006.0 0.0
25/08:30pm 29.7 27.5 20.8 58 6.0 N 33 52 18 28 1006.9 1005.1 0.0
25/08:21pm 30.0 27.9 20.5 56 6.4 NNE 32 52 17 28 1007.1 1005.3 0.0
25/08:10pm 32.6 32.6 18.0 41 9.5 NNE 15 43 8 23 1007.0 1005.2 0.0
25/08:00pm 34.7 38.5 23.4 52 7.9 N 9 11 5 6 1006.2 1004.3 0.0
25/07:30pm 35.8 39.8 20.5 41 10.4 CALM 0 4 0 2 1005.4 1003.6 0.0
25/07:00pm 37.9 41.5 19.8 35 12.3 CALM 0 0 0 0 1005.1 1003.3 0.0
25/06:30pm 37.6 39.8 20.4 36 11.7 SW 9 17 5 9 1004.7 1002.9 0.0
25/06:00pm 38.3 39.9 19.2 32 12.9 WSW 9 15 5 8 1004.3 1002.5 0.0
25/05:30pm 38.3 39.8 19.7 34 12.6 WSW 11 17 6 9 1003.8 1002.0 0.0
25/05:00pm 38.4 40.6 19.7 33 12.7 W 7 13 4 7 1004.0 1002.2 0.0
25/04:30pm 38.3 40.7 20.1 34 12.4 SSW 7 13 4 7 1004.2 1002.4 0.0
25/04:00pm 38.2 40.6 20.0 34 12.4 SSW 7 15 4 8 1004.8 1003.0 0.0
25/03:30pm 37.3 39.2 19.7 35 11.9 S 9 13 5 7 1005.4 1003.6 0.0
25/03:00pm 37.8 40.2 20.1 35 12.0 WSW 7 13 4 7 1005.8 1004.0 0.0
25/02:30pm 37.1 38.7 20.8 38 11.1 SW 13 24 7 13 1006.4 1004.5 0.0
25/02:00pm 36.3 39.4 22.8 45 9.4 WNW 11 17 6 9 1006.7 1004.9 0.0
25/01:30pm 36.0 38.2 21.1 42 10.2 W 11 19 6 10 1007.1 1005.3 0.0
25/01:00pm 36.0 38.2 21.8 43 9.8 WNW 13 20 7 11 1007.4 1005.6 0.0
25/12:30pm 35.1 38.2 22.8 49 8.6 W 11 20 6 11 1007.8 1006.0 0.0
25/12:00pm 34.3 37.1 23.0 51 7.9 NW 13 20 7 11 1008.4 1006.6 0.0
25/11:30am 33.4 35.9 22.5 52 7.5 NW 13 22 7 12 1008.9 1007.1 0.0
25/11:00am 32.9 35.4 23.2 56 6.8 NW 15 26 8 14 1009.2 1007.4 0.0
25/10:30am 32.5 35.2 23.4 58 6.3 NW 15 20 8 11 1009.4 1007.6 0.0
25/10:00am 31.9 34.4 23.2 60 6.1 NW 15 24 8 13 1009.5 1007.7 0.0
25/09:30am 31.3 33.8 23.1 61 5.7 NNW 15 24 8 13 1009.4 1007.6 0.0
25/09:00am 30.6 33.2 23.3 65 5.1 NNW 15 24 8 13 1009.2 1007.4 1.8
25/08:30am 29.7 31.4 22.4 65 5.0 NNW 17 24 9 13 1009.1 1007.3 1.8
25/08:00am 28.7 31.2 22.4 68 4.3 N 13 20 7 11 1008.7 1006.9 1.8
25/07:30am 27.3 30.7 22.7 76 3.1 N 9 15 5 8 1008.6 1006.8 1.8
25/07:00am 26.3 30.1 22.8 81 2.4 N 7 11 4 6 1008.2 1006.4 1.8
25/06:30am 26.1 29.2 22.8 82 2.3 N 11 15 6 8 1007.7 1005.9 1.8
25/06:00am 26.3 29.9 23.0 82 2.3 N 9 13 5 7 1007.3 1005.5 1.8
25/05:30am 26.6 30.0 22.7 79 2.7 N 9 13 5 7 1006.9 1005.1 1.8
25/05:00am 26.9 30.0 22.9 79 2.7 N 11 13 6 7 1006.6 1004.7 1.8
25/04:30am 27.5 30.7 23.1 77 3.0 N 11 15 6 8 1006.4 1004.5 1.8
25/04:00am 28.0 31.0 23.4 76 3.2 N 13 17 7 9 1006.4 1004.5 1.8
25/03:30am 28.4 31.1 23.5 75 3.4 N 15 20 8 11 1006.3 1004.4 1.8
25/03:00am 28.4 31.5 23.5 75 3.4 N 13 17 7 9 1006.4 1004.5 1.8
25/02:30am 28.4 31.5 23.5 75 3.4 N 13 17 7 9 1006.2 1004.3 1.8
25/02:00am 28.7 31.6 23.1 71 3.9 N 13 17 7 9 1006.5 1004.6 1.8
25/01:30am 28.8 32.4 23.7 74 3.5 N 11 15 6 8 1006.9 1005.1 1.8
25/01:00am 28.8 33.4 24.1 76 3.3 N 7 13 4 7 1007.2 1005.4 1.8
25/12:30am 30.0 33.3 23.9 70 4.3 NNE 13 19 7 10 1007.1 1005.3 1.8
25/12:00am 29.8 33.2 24.0 71 4.1 NNE 13 19 7 10 1007.1 1005.3 1.8
 
Date/Time
EST
Temp
°C
App
Temp
°C
Dew
Point
Rel
Hum
%
Delta-T
°C
Wind Press
QNH
hPa
Press
MSL
hPa
Rain
since 9 am
mm
Dir
 
Spd
km/h
Gust
km/h
Spd
kts
Gust
kts
24/11:30pm 29.5 31.1 23.2 69 4.4 N 20 28 11 15 1006.9 1005.1 1.8
24/11:00pm 32.5 34.2 21.7 53 7.4 N 15 22 8 12 1006.9 1005.1 0.6
24/10:30pm 31.6 35.0 22.0 56 6.6 NNE 7 9 4 5 1006.3 1004.4 0.6
24/10:00pm 31.8 35.3 22.2 56 6.6 N 7 9 4 5 1005.6 1003.8 0.6
24/09:30pm 32.4 35.2 21.6 53 7.4 N 9 11 5 6 1005.7 1003.9 0.6
24/09:00pm 32.4 35.4 21.9 54 7.2 N 9 11 5 6 1005.6 1003.8 0.6
24/08:30pm 32.6 35.5 21.8 53 7.4 N 9 11 5 6 1005.4 1003.6 0.6
24/08:00pm 33.2 35.5 20.7 47 8.5 NNE 9 13 5 7 1005.2 1003.4 0.6
24/07:30pm 34.1 36.5 20.8 45 9.0 N 9 11 5 6 1004.8 1003.0 0.6
24/07:00pm 35.7 37.5 19.6 39 10.8 N 9 11 5 6 1004.0 1002.2 0.6
24/06:30pm 36.6 37.8 18.2 34 12.1 N 9 15 5 8 1003.5 1001.7 0.6
24/06:00pm 37.2 39.0 18.7 33 12.3 NNE 7 11 4 6 1003.0 1001.2 0.6
24/05:30pm 36.6 37.8 18.2 34 12.1 NNE 9 17 5 9 1003.1 1001.3 0.6
24/05:00pm 37.7 38.0 18.7 33 12.7 NNE 15 17 8 9 1003.3 1001.5 0.6
24/04:30pm 36.5 37.3 19.0 35 11.7 NNE 13 24 7 13 1003.4 1001.6 0.6
24/04:00pm 37.6 39.7 18.1 32 12.9 WNW 4 9 2 5 1003.5 1001.7 0.6
24/03:30pm 34.8 38.1 21.5 46 9.1 WNW 6 9 3 5 1003.7 1001.9 0.6
24/03:00pm 33.4 34.7 20.2 46 8.9 WNW 13 28 7 15 1004.3 1002.5 0.6
24/02:30pm 36.9 38.6 18.0 33 12.4 W 6 9 3 5 1004.3 1002.5 0.0
24/02:00pm 37.0 38.7 18.1 33 12.5 NW 6 11 3 6 1004.4 1002.6 0.0
24/01:30pm 38.2 39.2 18.6 31 13.0 W 11 15 6 8 1004.7 1002.9 0.0
24/01:00pm 37.6 39.5 18.6 33 12.7 NW 6 13 3 7 1005.0 1003.2 0.0
24/12:30pm 36.9 39.0 18.9 34 12.0 WNW 6 11 3 6 1005.4 1003.6 0.0
24/12:00pm 35.8 37.2 17.9 34 11.8 SSW 7 11 4 6 1005.5 1003.7 0.0
24/11:30am 35.3 37.5 19.6 39 10.5 SW 7 11 4 6 1005.6 1003.8 0.0
24/11:00am 34.7 36.3 19.1 39 10.4 SW 9 13 5 7 1005.8 1004.0 0.0
24/10:30am 33.5 34.8 18.4 40 9.9 W 9 13 5 7 1005.9 1004.1 0.0
24/10:00am 32.8 33.9 18.9 43 9.2 W 11 15 6 8 1005.9 1004.1 0.0
24/09:30am 31.9 33.5 19.2 47 8.4 W 9 15 5 8 1005.7 1003.9 0.0
24/09:00am 28.8 31.3 21.0 62 5.2 NW 9 11 5 6 1005.8 1004.0 0.0
24/08:30am 28.3 30.5 20.3 62 5.3 NW 9 13 5 7 1005.8 1004.0 0.0
24/08:00am 27.9 30.1 19.7 61 5.4 WNW 7 11 4 6 1005.3 1003.5 0.0
24/07:30am 27.5 29.3 19.6 62 5.2 NW 9 13 5 7 1005.3 1003.5 0.0
24/07:00am 27.2 29.3 19.3 62 5.2 WNW 7 11 4 6 1005.1 1003.3 0.0
24/06:30am 27.3 28.9 19.1 61 5.3 NW 9 13 5 7 1004.8 1003.0 0.0
24/06:00am 27.8 29.4 19.1 59 5.7 WNW 9 13 5 7 1004.6 1002.8 0.0
24/05:30am 27.3 29.6 19.9 64 4.9 NW 7 9 4 5 1004.4 1002.6 0.0
24/05:00am 27.4 29.8 20.0 64 4.9 NNW 7 9 4 5 1004.1 1002.3 0.0
24/04:30am 27.2 30.0 20.8 68 4.3 N 7 11 4 6 1003.9 1002.1 0.0
24/04:00am 27.4 29.6 21.2 69 4.2 NE 11 15 6 8 1003.5 1001.7 0.0
24/03:30am 28.0 31.1 21.1 66 4.6 NNE 6 9 3 5 1003.4 1001.6 0.0
24/03:00am 28.2 30.4 19.7 60 5.6 NW 7 11 4 6 1003.2 1001.4 0.0
24/02:30am 27.9 30.8 19.9 61 5.3 NNW 4 7 2 4 1003.4 1001.6 0.0
24/02:00am 28.3 30.5 19.5 59 5.8 W 7 11 4 6 1003.6 1001.8 0.0
24/01:30am 28.9 31.1 19.5 57 6.2 WNW 7 13 4 7 1004.0 1002.2 0.0
24/01:00am 28.6 31.1 19.8 59 5.8 NW 6 7 3 4 1004.4 1002.6 0.0
24/12:30am 28.9 30.7 19.5 57 6.2 W 9 11 5 6 1004.5 1002.7 0.0
24/12:00am 28.6 30.8 19.5 58 6.0 W 7 9 4 5 1004.6 1002.8 0.0
 
Date/Time
EST
Temp
°C
App
Temp
°C
Dew
Point
Rel
Hum
%
Delta-T
°C
Wind Press
QNH
hPa
Press
MSL
hPa
Rain
since 9 am
mm
Dir
 
Spd
km/h
Gust
km/h
Spd
kts
Gust
kts
23/11:30pm 29.5 30.9 18.6 52 7.1 W 9 13 5 7 1004.7 1002.9 0.0
23/11:00pm 30.0 31.1 18.8 51 7.3 WSW 11 13 6 7 1004.8 1003.0 0.0
23/10:30pm 29.9 31.6 19.3 53 7.0 W 9 13 5 7 1004.7 1002.9 0.0
23/10:00pm 30.4 31.7 18.5 49 7.8 W 9 11 5 6 1004.6 1002.8 0.0
23/09:30pm 30.7 32.9 19.7 52 7.3 W 7 13 4 7 1004.4 1002.6 0.0
23/09:00pm 31.1 33.9 20.4 53 7.2 W 6 7 3 4 1004.2 1002.4 0.0
23/08:30pm 31.8 34.4 20.1 50 7.8 WNW 6 9 3 5 1003.9 1002.1 0.0
23/08:00pm 32.3 33.7 17.4 41 9.6 WSW 6 7 3 4 1003.5 1001.7 0.0
23/07:30pm 33.4 34.7 17.5 38 10.3 WSW 7 9 4 5 1003.2 1001.4 0.0
23/07:00pm 34.7 35.0 16.1 33 11.9 SSW 9 11 5 6 1003.0 1001.2 0.0
23/06:30pm 35.8 35.3 15.0 29 13.1 SW 11 13 6 7 1002.6 1000.7 0.0
23/06:00pm 36.5 35.9 14.5 27 13.8 SW 11 17 6 9 1002.4 1000.5 0.0
23/05:30pm 36.6 35.0 14.0 26 14.1 S 15 22 8 12 1002.3 1000.4 0.0
23/05:00pm 36.6 34.6 14.0 26 14.1 S 17 20 9 11 1002.3 1000.4 0.0
23/04:30pm 36.9 34.6 14.2 25 14.2 SSW 19 26 10 14 1002.4 1000.5 0.0
23/04:00pm 36.7 36.3 16.3 30 13.2 S 13 17 7 9 1002.5 1000.6 0.0
23/03:30pm 36.9 34.4 14.2 25 14.2 S 20 32 11 17 1002.7 1000.8 0.0
23/03:00pm 35.8 33.4 13.9 27 13.6 S 19 26 10 14 1002.9 1001.1 0.0
23/02:30pm 37.1 35.8 13.8 25 14.5 S 13 24 7 13 1003.2 1001.4 0.0

Other Formats:

Comma delimited format used in spreadsheet applications
http://www.bom.gov.au/fwo/IDQ60801/IDQ60801.94255.axf

JavaScript Object Notation format (JSON) in row-major order
http://www.bom.gov.au/fwo/IDQ60801/IDQ60801.94255.json